createdAt,value
2019-04-20T00:00:09.518Z,0.00
2019-04-20T00:01:07.358Z,0.00
2019-04-20T00:02:13.692Z,0.00
2019-04-20T00:03:06.022Z,0.00
2019-04-20T00:04:09.887Z,0.00
2019-04-20T00:05:05.870Z,0.00
2019-04-20T00:06:06.989Z,0.00
2019-04-20T00:07:06.046Z,0.00
2019-04-20T00:08:09.101Z,0.00
2019-04-20T00:09:12.232Z,0.00
2019-04-20T00:10:13.104Z,0.00
2019-04-20T00:11:11.717Z,0.00
2019-04-20T00:12:12.729Z,0.00
2019-04-20T00:13:16.583Z,0.00
2019-04-20T00:14:10.973Z,0.00
2019-04-20T00:15:05.130Z,0.00
2019-04-20T00:16:06.232Z,0.00
2019-04-20T00:17:05.206Z,0.00
2019-04-20T00:18:06.806Z,0.00
2019-04-20T00:19:05.841Z,0.00
2019-04-20T00:20:15.525Z,0.00
2019-04-20T00:21:08.589Z,0.00
2019-04-20T00:22:08.263Z,0.00
2019-04-20T00:23:05.825Z,0.00
2019-04-20T00:24:11.436Z,0.00
2019-04-20T00:25:11.867Z,0.00
2019-04-20T00:26:13.163Z,0.00
2019-04-20T00:27:26.268Z,0.00
2019-04-20T00:28:20.808Z,0.00
2019-04-20T00:29:21.288Z,0.00
2019-04-20T00:30:26.425Z,0.00
2019-04-20T00:31:22.491Z,0.00
2019-04-20T00:32:14.421Z,0.00
2019-04-20T00:33:14.786Z,0.00
2019-04-20T00:34:11.941Z,0.00
2019-04-20T00:35:04.148Z,0.00
2019-04-20T00:36:03.518Z,0.00
2019-04-20T00:37:05.185Z,0.00
2019-04-20T00:38:03.453Z,0.00
2019-04-20T00:39:06.410Z,0.00
2019-04-20T00:40:03.717Z,0.00
2019-04-20T00:41:07.596Z,0.00
2019-04-20T00:42:06.677Z,0.00
2019-04-20T00:43:03.090Z,0.00
2019-04-20T00:44:09.411Z,0.00
2019-04-20T00:45:10.616Z,0.00
2019-04-20T00:46:09.107Z,0.00
2019-04-20T00:47:14.435Z,0.00
2019-04-20T00:48:07.968Z,0.00
2019-04-20T00:49:17.307Z,0.00
2019-04-20T00:50:18.470Z,0.00
2019-04-20T00:51:24.115Z,0.00
2019-04-20T00:52:31.288Z,0.00
2019-04-20T00:53:10.131Z,0.00
2019-04-20T00:54:03.642Z,0.00
2019-04-20T00:55:02.420Z,0.00
2019-04-20T00:56:03.314Z,0.00
2019-04-20T00:57:13.509Z,0.00
2019-04-20T00:58:14.778Z,0.00
2019-04-20T00:59:13.012Z,0.00
2019-04-20T01:00:21.928Z,0.00
2019-04-20T01:01:20.567Z,0.00
2019-04-20T01:02:16.920Z,0.00
2019-04-20T01:03:15.836Z,0.00
2019-04-20T01:04:20.231Z,0.00
2019-04-20T01:05:18.060Z,0.00
2019-04-20T01:06:24.743Z,0.00
2019-04-20T01:07:13.945Z,0.00
2019-04-20T01:08:04.508Z,0.00
2019-04-20T01:09:01.356Z,0.00
2019-04-20T01:10:00.934Z,0.00
2019-04-20T01:11:01.527Z,0.00
2019-04-20T01:12:05.131Z,0.00
2019-04-20T01:13:06.731Z,0.00
2019-04-20T01:14:04.370Z,0.00
2019-04-20T01:15:05.146Z,0.00
2019-04-20T01:16:06.222Z,0.00
2019-04-20T01:17:11.415Z,0.00
2019-04-20T01:18:00.321Z,0.00
2019-04-20T01:19:00.244Z,0.00
2019-04-20T01:20:00.169Z,0.00
2019-04-20T01:21:06.864Z,0.00
2019-04-20T01:22:06.635Z,0.00
2019-04-20T01:23:06.657Z,0.00
2019-04-20T01:24:04.531Z,0.00
2019-04-20T01:25:07.884Z,0.00
2019-04-20T01:26:05.513Z,0.00
2019-04-20T01:27:02.497Z,0.00
2019-04-20T01:28:11.914Z,0.00
2019-04-20T01:29:12.146Z,0.00
2019-04-20T01:30:09.938Z,0.00
2019-04-20T01:31:12.543Z,0.00
2019-04-20T01:32:10.471Z,0.00
2019-04-20T01:33:14.874Z,0.00
2019-04-20T01:34:06.185Z,0.00
2019-04-20T01:35:10.037Z,0.00
2019-04-20T01:36:21.585Z,0.00
2019-04-20T01:37:14.473Z,0.00
2019-04-20T01:38:16.633Z,0.00
2019-04-20T01:39:10.305Z,0.00
2019-04-20T01:40:02.349Z,0.00
2019-04-20T01:40:59.137Z,0.00
2019-04-20T01:41:58.483Z,0.00
2019-04-20T01:42:59.511Z,0.00
2019-04-20T01:43:58.545Z,0.00
2019-04-20T01:44:59.001Z,0.00
2019-04-20T01:46:05.091Z,0.00
2019-04-20T01:47:01.498Z,0.00
2019-04-20T01:48:00.945Z,0.00
2019-04-20T01:48:59.939Z,0.00
2019-04-20T01:50:03.789Z,0.00
2019-04-20T01:51:05.961Z,0.00
2019-04-20T01:52:07.653Z,0.00
2019-04-20T01:53:09.975Z,0.00
2019-04-20T01:54:12.066Z,0.00
2019-04-20T01:55:21.201Z,0.00
2019-04-20T01:56:13.730Z,0.00
2019-04-20T01:57:09.493Z,0.00
2019-04-20T01:58:22.424Z,0.00
2019-04-20T01:59:16.343Z,0.00
2019-04-20T02:00:06.036Z,0.00
2019-04-20T02:00:58.842Z,0.00
2019-04-20T02:02:03.203Z,0.00
2019-04-20T02:03:01.356Z,0.00
2019-04-20T02:03:58.697Z,0.00
2019-04-20T02:05:04.455Z,0.00
2019-04-20T02:06:03.509Z,0.00
2019-04-20T02:06:59.660Z,0.00
2019-04-20T02:07:57.464Z,0.00
2019-04-20T02:09:00.289Z,0.00
2019-04-20T02:10:01.918Z,0.00
2019-04-20T02:11:00.586Z,0.00
2019-04-20T02:12:05.880Z,0.00
2019-04-20T02:13:00.181Z,0.00
2019-04-20T02:14:01.470Z,0.00
2019-04-20T02:15:00.464Z,0.00
2019-04-20T02:15:59.835Z,0.00
2019-04-20T02:17:04.491Z,0.00
2019-04-20T02:18:08.931Z,0.00
2019-04-20T02:19:09.300Z,0.00
2019-04-20T02:20:15.607Z,0.00
2019-04-20T02:21:15.172Z,0.00
2019-04-20T02:22:09.732Z,0.00
2019-04-20T02:23:10.700Z,0.00
2019-04-20T02:24:00.594Z,0.00
2019-04-20T02:24:55.262Z,0.00
2019-04-20T02:25:55.104Z,0.00
2019-04-20T02:26:55.713Z,0.00
2019-04-20T02:28:13.625Z,0.00
2019-04-20T02:29:21.595Z,0.00
2019-04-20T02:30:21.777Z,0.00
2019-04-20T02:31:38.271Z,0.00
2019-04-20T02:32:22.494Z,0.00
2019-04-20T02:33:40.153Z,0.00
2019-04-20T02:34:31.656Z,0.00
2019-04-20T02:35:30.889Z,0.00
2019-04-20T02:36:44.274Z,0.00
2019-04-20T02:38:39.197Z,0.00
2019-04-20T02:40:39.804Z,0.00
2019-04-20T02:41:32.994Z,0.00
2019-04-20T02:42:57.997Z,0.00
2019-04-20T02:45:40.036Z,0.00
2019-04-20T02:46:24.457Z,0.00
2019-04-20T02:47:35.731Z,0.00
2019-04-20T02:48:22.194Z,0.00
2019-04-20T02:51:31.262Z,0.00
2019-04-20T02:52:33.491Z,0.00
2019-04-20T02:53:31.955Z,0.00
2019-04-20T02:55:22.561Z,0.00
2019-04-20T02:56:37.429Z,0.00
2019-04-20T02:58:25.547Z,0.00
2019-04-20T03:00:19.440Z,0.00
2019-04-20T03:02:13.005Z,0.00
2019-04-20T03:03:03.229Z,0.00
2019-04-20T03:03:57.638Z,0.00
2019-04-20T03:05:06.669Z,0.00
2019-04-20T03:06:08.594Z,0.00
2019-04-20T03:07:09.361Z,0.00
2019-04-20T03:08:08.528Z,0.00
2019-04-20T03:09:56.284Z,0.00
2019-04-20T03:11:11.719Z,0.00
2019-04-20T03:12:18.759Z,0.00
2019-04-20T03:13:04.125Z,0.00
2019-04-20T03:13:59.257Z,0.00
2019-04-20T03:14:51.489Z,0.00
2019-04-20T03:16:01.907Z,0.00
2019-04-20T03:17:06.887Z,0.00
2019-04-20T03:18:55.706Z,0.00
2019-04-20T03:19:53.673Z,0.00
2019-04-20T03:21:00.688Z,0.00
2019-04-20T03:22:03.800Z,0.00
2019-04-20T03:24:06.428Z,0.00
2019-04-20T03:25:02.027Z,0.00
2019-04-20T03:25:58.504Z,0.00
2019-04-20T03:26:57.004Z,0.00
2019-04-20T03:27:59.580Z,0.00
2019-04-20T03:28:54.115Z,0.00
2019-04-20T03:29:57.789Z,0.00
2019-04-20T03:33:21.188Z,0.00
2019-04-20T03:35:05.316Z,0.00
2019-04-20T03:36:10.407Z,0.00
2019-04-20T03:37:07.342Z,0.00
2019-04-20T03:37:58.815Z,0.00
2019-04-20T03:38:57.334Z,0.00
2019-04-20T03:39:54.050Z,0.00
2019-04-20T03:40:48.349Z,0.00
2019-04-20T03:41:43.190Z,0.00
2019-04-20T03:42:37.101Z,0.00
2019-04-20T03:43:37.097Z,0.00
2019-04-20T03:44:38.884Z,0.00
2019-04-20T03:45:44.522Z,0.00
2019-04-20T03:46:45.103Z,0.00
2019-04-20T03:47:49.685Z,0.00
2019-04-20T03:48:56.246Z,0.00
2019-04-20T03:49:59.544Z,0.00
2019-04-20T03:50:57.682Z,0.00
2019-04-20T03:51:57.403Z,0.00
2019-04-20T03:52:54.261Z,0.00
2019-04-20T03:53:57.927Z,0.00
2019-04-20T03:54:48.297Z,0.00
2019-04-20T03:55:54.015Z,0.00
2019-04-20T03:56:54.447Z,0.00
2019-04-20T03:58:01.148Z,0.00
2019-04-20T03:58:50.533Z,0.00
2019-04-20T03:59:56.453Z,0.00
2019-04-20T04:00:50.426Z,0.00
2019-04-20T04:02:17.073Z,0.00
2019-04-20T04:03:08.235Z,0.00
2019-04-20T04:03:58.974Z,0.00
2019-04-20T04:04:56.335Z,0.00
2019-04-20T04:05:48.028Z,0.00
2019-04-20T04:06:44.395Z,0.00
2019-04-20T04:07:41.558Z,0.00
2019-04-20T04:08:42.909Z,0.00
2019-04-20T04:09:47.006Z,0.00
2019-04-20T04:10:54.864Z,0.00
2019-04-20T04:11:48.947Z,0.00
2019-04-20T04:12:38.361Z,0.00
2019-04-20T04:13:35.500Z,0.00
2019-04-20T04:14:34.571Z,0.00
2019-04-20T04:15:38.137Z,0.00
2019-04-20T04:16:40.974Z,0.00
2019-04-20T04:17:39.082Z,0.00
2019-04-20T04:18:40.468Z,5.63
2019-04-20T04:19:38.255Z,5.63
2019-04-20T04:20:43.359Z,5.63
2019-04-20T04:21:49.853Z,5.63
2019-04-20T04:22:51.510Z,5.63
2019-04-20T04:24:46.613Z,5.63
2019-04-20T04:25:54.146Z,5.63
2019-04-20T04:26:48.893Z,11.25
2019-04-20T04:27:53.933Z,11.25
2019-04-20T04:28:47.449Z,11.25
2019-04-20T04:29:50.937Z,11.25
2019-04-20T04:30:49.401Z,11.25
2019-04-20T04:32:01.348Z,16.88
2019-04-20T04:33:24.467Z,16.88
2019-04-20T04:33:55.741Z,16.88
2019-04-20T04:34:51.211Z,16.88
2019-04-20T04:35:51.600Z,16.88
2019-04-20T04:36:53.928Z,22.50
2019-04-20T04:37:47.102Z,22.50
2019-04-20T04:38:53.493Z,22.50
2019-04-20T04:39:48.508Z,22.50
2019-04-20T04:41:06.476Z,22.50
2019-04-20T04:42:02.151Z,28.13
2019-04-20T04:42:53.709Z,28.13
2019-04-20T04:43:49.711Z,28.13
2019-04-20T04:44:43.540Z,28.13
2019-04-20T04:45:33.565Z,33.75
2019-04-20T04:46:33.924Z,33.75
2019-04-20T04:47:32.669Z,33.75
2019-04-20T04:48:36.650Z,33.75
2019-04-20T04:49:36.676Z,39.38
2019-04-20T04:50:32.951Z,39.38
2019-04-20T04:51:42.389Z,39.38
2019-04-20T04:52:43.158Z,39.38
2019-04-20T04:53:44.230Z,39.38
2019-04-20T04:54:41.337Z,45.00
2019-04-20T04:55:41.736Z,45.00
2019-04-20T04:56:32.001Z,45.00
2019-04-20T04:57:30.888Z,45.00
2019-04-20T04:58:31.903Z,50.63
2019-04-20T04:59:31.701Z,50.63
2019-04-20T05:00:33.147Z,50.63
2019-04-20T05:01:33.985Z,50.63
2019-04-20T05:02:39.306Z,50.63
2019-04-20T05:03:44.744Z,56.25
2019-04-20T05:04:58.496Z,56.25
2019-04-20T05:05:49.188Z,56.25
2019-04-20T05:06:45.525Z,56.25
2019-04-20T05:07:43.466Z,56.25
2019-04-20T05:08:36.744Z,61.88
2019-04-20T05:09:29.951Z,61.88
2019-04-20T05:10:30.756Z,61.88
2019-04-20T05:11:30.083Z,61.88
2019-04-20T05:12:33.081Z,61.88
2019-04-20T05:13:38.087Z,67.50
2019-04-20T05:14:41.840Z,67.50
2019-04-20T05:15:44.401Z,67.50
2019-04-20T05:16:45.074Z,67.50
2019-04-20T05:17:52.749Z,67.50
2019-04-20T05:18:52.523Z,67.50
2019-04-20T05:19:47.863Z,73.13
2019-04-20T05:20:54.611Z,73.13
2019-04-20T05:21:55.253Z,73.13
2019-04-20T05:22:45.736Z,78.75
2019-04-20T05:23:41.195Z,84.38
2019-04-20T05:24:42.406Z,84.38
2019-04-20T05:25:54.717Z,84.38
2019-04-20T05:26:53.393Z,90.00
2019-04-20T05:27:47.819Z,90.00
2019-04-20T05:29:37.865Z,90.00
2019-04-20T05:30:43.500Z,90.00
2019-04-20T05:31:43.167Z,95.63
2019-04-20T05:32:44.606Z,95.63
2019-04-20T05:34:01.188Z,95.63
2019-04-20T05:35:02.073Z,95.63
2019-04-20T05:35:58.912Z,95.63
2019-04-20T05:37:04.690Z,95.63
2019-04-20T05:38:02.899Z,101.25
2019-04-20T05:38:55.203Z,101.25
2019-04-20T05:40:00.340Z,101.25
2019-04-20T05:40:59.458Z,101.25
2019-04-20T05:41:51.387Z,101.25
2019-04-20T05:42:55.589Z,101.25
2019-04-20T05:43:50.725Z,101.25
2019-04-20T05:45:01.955Z,101.25
2019-04-20T05:45:45.383Z,101.25
2019-04-20T05:46:57.150Z,101.25
2019-04-20T05:47:52.651Z,101.25
2019-04-20T05:48:56.175Z,101.25
2019-04-20T05:49:49.967Z,106.88
2019-04-20T05:50:52.816Z,106.88
2019-04-20T05:51:56.158Z,106.88
2019-04-20T05:53:01.753Z,106.88
2019-04-20T05:53:50.079Z,106.88
2019-04-20T05:54:56.279Z,106.88
2019-04-20T05:57:00.812Z,112.50
2019-04-20T05:57:56.648Z,112.50
2019-04-20T05:58:58.048Z,112.50
2019-04-20T06:00:03.569Z,112.50
2019-04-20T06:01:58.634Z,118.13
2019-04-20T06:02:54.880Z,112.50
2019-04-20T06:03:48.989Z,118.13
2019-04-20T06:05:50.752Z,118.13
2019-04-20T06:06:37.729Z,118.13
2019-04-20T06:07:35.777Z,118.13
2019-04-20T06:09:42.953Z,118.13
2019-04-20T06:10:41.799Z,118.13
2019-04-20T06:11:44.457Z,118.13
2019-04-20T06:12:37.327Z,123.75
2019-04-20T06:13:29.919Z,123.75
2019-04-20T06:14:25.732Z,123.75
2019-04-20T06:15:30.537Z,123.75
2019-04-20T06:16:44.102Z,123.75
2019-04-20T06:17:41.885Z,123.75
2019-04-20T06:18:32.475Z,123.75
2019-04-20T06:19:35.430Z,123.75
2019-04-20T06:20:36.042Z,123.75
2019-04-20T06:21:39.452Z,129.38
2019-04-20T06:22:34.985Z,129.38
2019-04-20T06:23:33.805Z,129.38
2019-04-20T06:24:49.860Z,129.38
2019-04-20T06:25:44.294Z,129.38
2019-04-20T06:26:43.788Z,129.38
2019-04-20T06:27:34.734Z,129.38
2019-04-20T06:28:30.138Z,129.38
2019-04-20T06:29:35.162Z,129.38
2019-04-20T06:30:30.854Z,129.38
2019-04-20T06:31:35.684Z,129.38
2019-04-20T06:32:33.923Z,129.38
2019-04-20T06:33:52.374Z,135.00
2019-04-20T06:34:39.946Z,135.00
2019-04-20T06:35:59.164Z,135.00
2019-04-20T06:36:43.126Z,135.00
2019-04-20T06:37:39.088Z,135.00
2019-04-20T06:38:53.909Z,135.00
2019-04-20T06:39:41.475Z,135.00
2019-04-20T06:41:57.110Z,135.00
2019-04-20T06:42:29.234Z,135.00
2019-04-20T06:43:42.093Z,135.00
2019-04-20T06:45:36.420Z,135.00
2019-04-20T06:46:36.292Z,135.00
2019-04-20T06:47:29.285Z,140.63
2019-04-20T06:48:42.642Z,140.63
2019-04-20T06:49:33.411Z,140.63
2019-04-20T06:50:32.952Z,140.63
2019-04-20T06:51:35.045Z,140.63
2019-04-20T06:52:42.168Z,140.63
2019-04-20T06:53:36.634Z,140.63
2019-04-20T06:54:25.593Z,140.63
2019-04-20T06:55:38.170Z,140.63
2019-04-20T06:56:35.418Z,140.63
2019-04-20T06:57:35.669Z,140.63
2019-04-20T06:58:46.371Z,140.63
2019-04-20T06:59:40.768Z,140.63
2019-04-20T07:00:32.142Z,146.25
2019-04-20T07:01:47.062Z,146.25
2019-04-20T07:02:38.621Z,146.25
2019-04-20T07:03:42.312Z,146.25
2019-04-20T07:04:41.836Z,146.25
2019-04-20T07:05:34.681Z,146.25
2019-04-20T07:07:33.902Z,146.25
2019-04-20T07:08:48.800Z,146.25
2019-04-20T07:09:42.402Z,146.25
2019-04-20T07:10:49.491Z,146.25
2019-04-20T07:12:27.160Z,151.88
2019-04-20T07:13:23.999Z,151.88
2019-04-20T07:14:25.835Z,151.88
2019-04-20T07:15:35.341Z,151.88
2019-04-20T07:16:28.887Z,151.88
2019-04-20T07:17:39.251Z,151.88
2019-04-20T07:18:35.257Z,151.88
2019-04-20T07:19:31.368Z,151.88
2019-04-20T07:20:39.620Z,151.88
2019-04-20T07:21:49.697Z,151.88
2019-04-20T07:22:33.779Z,151.88
2019-04-20T07:23:32.625Z,151.88
2019-04-20T07:24:35.044Z,151.88
2019-04-20T07:25:31.720Z,157.50
2019-04-20T07:26:37.449Z,157.50
2019-04-20T07:27:29.542Z,157.50
2019-04-20T07:28:31.304Z,157.50
2019-04-20T07:29:36.883Z,157.50
2019-04-20T07:30:30.033Z,157.50
2019-04-20T07:31:29.628Z,157.50
2019-04-20T07:32:23.425Z,151.88
2019-04-20T07:33:32.167Z,157.50
2019-04-20T07:34:26.606Z,157.50
2019-04-20T07:35:30.581Z,157.50
2019-04-20T07:36:32.472Z,157.50
2019-04-20T07:38:34.280Z,157.50
2019-04-20T07:39:33.110Z,163.13
2019-04-20T07:40:24.619Z,163.13
2019-04-20T07:41:45.094Z,163.13
2019-04-20T07:42:34.599Z,163.13
2019-04-20T07:43:30.092Z,163.13
2019-04-20T07:44:36.011Z,163.13
2019-04-20T07:45:30.879Z,163.13
2019-04-20T07:46:44.705Z,163.13
2019-04-20T07:47:38.704Z,163.13
2019-04-20T07:48:24.802Z,163.13
2019-04-20T07:49:32.628Z,163.13
2019-04-20T07:50:21.761Z,163.13
2019-04-20T07:51:17.649Z,163.13
2019-04-20T07:52:08.146Z,163.13
2019-04-20T07:53:25.634Z,163.13
2019-04-20T07:54:40.204Z,163.13
2019-04-20T07:56:36.038Z,168.75
2019-04-20T07:57:25.898Z,168.75
2019-04-20T07:58:18.196Z,163.13
2019-04-20T07:59:20.570Z,163.13
2019-04-20T08:00:35.606Z,163.13
2019-04-20T08:01:36.137Z,168.75
2019-04-20T08:02:36.646Z,168.75
2019-04-20T08:03:33.780Z,168.75
2019-04-20T08:04:24.613Z,168.75
2019-04-20T08:05:19.605Z,168.75
2019-04-20T08:06:15.871Z,168.75
2019-04-20T08:07:09.493Z,168.75
2019-04-20T08:08:23.907Z,168.75
2019-04-20T08:09:19.638Z,168.75
2019-04-20T08:10:11.437Z,168.75
2019-04-20T08:11:22.857Z,168.75
2019-04-20T08:12:34.575Z,168.75
2019-04-20T08:13:33.390Z,168.75
2019-04-20T08:14:31.610Z,168.75
2019-04-20T08:15:36.384Z,168.75
2019-04-20T08:16:32.883Z,168.75
2019-04-20T08:17:30.913Z,168.75
2019-04-20T08:19:24.660Z,168.75
2019-04-20T08:20:25.700Z,168.75
2019-04-20T08:21:33.357Z,168.75
2019-04-20T08:22:26.728Z,174.38
2019-04-20T08:24:21.466Z,174.38
2019-04-20T08:25:16.732Z,174.38
2019-04-20T08:26:14.233Z,174.38
2019-04-20T08:27:09.291Z,174.38
2019-04-20T08:28:06.426Z,174.38
2019-04-20T08:29:20.556Z,174.38
2019-04-20T08:30:22.816Z,174.38
2019-04-20T08:31:17.899Z,174.38
2019-04-20T08:32:25.981Z,174.38
2019-04-20T08:33:24.555Z,174.38
2019-04-20T08:34:31.261Z,180.00
2019-04-20T08:35:29.687Z,174.38
2019-04-20T08:36:27.224Z,174.38
2019-04-20T08:37:20.677Z,180.00
2019-04-20T08:39:37.430Z,180.00
2019-04-20T08:40:25.424Z,180.00
2019-04-20T08:41:20.745Z,180.00
2019-04-20T08:42:21.634Z,180.00
2019-04-20T08:43:37.710Z,180.00
2019-04-20T08:44:46.964Z,180.00
2019-04-20T08:45:23.896Z,180.00
2019-04-20T08:47:32.337Z,180.00
2019-04-20T08:48:31.424Z,174.38
2019-04-20T08:49:31.039Z,180.00
2019-04-20T08:50:22.341Z,185.63
2019-04-20T08:51:25.840Z,180.00
2019-04-20T08:52:52.088Z,180.00
2019-04-20T08:53:27.592Z,180.00
2019-04-20T08:54:23.761Z,180.00
2019-04-20T08:55:19.770Z,185.63
2019-04-20T08:56:14.232Z,185.63
2019-04-20T08:57:04.802Z,185.63
2019-04-20T08:58:02.817Z,180.00
2019-04-20T08:59:03.903Z,180.00
2019-04-20T09:00:04.979Z,185.63
2019-04-20T09:01:06.548Z,185.63
2019-04-20T09:02:08.464Z,185.63
2019-04-20T09:03:13.009Z,185.63
2019-04-20T09:04:10.838Z,185.63
2019-04-20T09:05:09.062Z,185.63
2019-04-20T09:06:08.595Z,191.25
2019-04-20T09:07:10.706Z,185.63
2019-04-20T09:08:11.350Z,191.25
2019-04-20T09:09:33.144Z,191.25
2019-04-20T09:10:28.172Z,191.25
2019-04-20T09:11:19.623Z,191.25
2019-04-20T09:12:16.748Z,191.25
2019-04-20T09:13:11.588Z,185.63
2019-04-20T09:14:03.855Z,185.63
2019-04-20T09:15:01.673Z,191.25
2019-04-20T09:16:02.119Z,191.25
2019-04-20T09:17:05.873Z,196.88
2019-04-20T09:18:05.546Z,191.25
2019-04-20T09:19:07.034Z,191.25
2019-04-20T09:20:09.638Z,196.88
2019-04-20T09:21:09.049Z,196.88
2019-04-20T09:22:12.193Z,196.88
2019-04-20T09:23:17.194Z,196.88
2019-04-20T09:24:31.996Z,196.88
2019-04-20T09:26:16.241Z,202.50
2019-04-20T09:27:14.269Z,196.88
2019-04-20T09:28:14.597Z,196.88
2019-04-20T09:29:12.653Z,196.88
2019-04-20T09:30:16.054Z,196.88
2019-04-20T09:31:18.474Z,196.88
2019-04-20T09:32:21.584Z,196.88
2019-04-20T09:33:14.692Z,196.88
2019-04-20T09:34:15.725Z,196.88
2019-04-20T09:35:22.159Z,202.50
2019-04-20T09:36:15.311Z,202.50
2019-04-20T09:37:22.380Z,202.50
2019-04-20T09:38:14.499Z,202.50
2019-04-20T09:39:11.355Z,202.50
2019-04-20T09:40:16.314Z,202.50
2019-04-20T09:41:22.010Z,202.50
2019-04-20T09:42:01.454Z,202.50
2019-04-20T09:43:00.224Z,208.13
2019-04-20T09:44:00.363Z,202.50
2019-04-20T09:45:02.788Z,208.13
2019-04-20T09:46:03.592Z,208.13
2019-04-20T09:47:01.689Z,208.13
2019-04-20T09:48:00.553Z,208.13
2019-04-20T09:49:06.367Z,208.13
2019-04-20T09:50:18.816Z,208.13
2019-04-20T09:51:20.369Z,213.75
2019-04-20T09:52:13.605Z,213.75
2019-04-20T09:53:14.295Z,213.75
2019-04-20T09:54:17.447Z,213.75
2019-04-20T09:55:10.814Z,213.75
2019-04-20T09:56:18.241Z,213.75
2019-04-20T09:57:21.313Z,213.75
2019-04-20T09:58:14.817Z,208.13
2019-04-20T09:59:16.574Z,213.75
2019-04-20T10:00:15.857Z,219.38
2019-04-20T10:01:13.298Z,213.75
2019-04-20T10:02:06.581Z,213.75
2019-04-20T10:02:58.324Z,219.38
2019-04-20T10:03:59.023Z,219.38
2019-04-20T10:04:58.021Z,219.38
2019-04-20T10:05:59.226Z,219.38
2019-04-20T10:07:02.253Z,219.38
2019-04-20T10:08:01.233Z,219.38
2019-04-20T10:09:00.464Z,219.38
2019-04-20T10:09:57.910Z,219.38
2019-04-20T10:10:57.598Z,219.38
2019-04-20T10:11:57.633Z,225.00
2019-04-20T10:12:58.357Z,225.00
2019-04-20T10:13:58.564Z,219.38
2019-04-20T10:15:02.678Z,225.00
2019-04-20T10:15:57.669Z,225.00
2019-04-20T10:16:57.978Z,230.63
2019-04-20T10:17:57.113Z,230.63
2019-04-20T10:18:57.037Z,230.63
2019-04-20T10:19:57.762Z,230.63
2019-04-20T10:20:57.953Z,230.63
2019-04-20T10:21:57.025Z,230.63
2019-04-20T10:22:56.751Z,236.25
2019-04-20T10:23:56.683Z,236.25
2019-04-20T10:24:57.156Z,236.25
2019-04-20T10:25:56.625Z,236.25
2019-04-20T10:26:56.627Z,236.25
2019-04-20T10:27:57.578Z,247.50
2019-04-20T10:28:57.486Z,241.88
2019-04-20T10:29:57.502Z,247.50
2019-04-20T10:30:56.773Z,241.88
2019-04-20T10:32:00.107Z,247.50
2019-04-20T10:32:57.366Z,253.13
2019-04-20T10:33:55.975Z,247.50
2019-04-20T10:34:56.823Z,247.50
2019-04-20T10:35:57.330Z,247.50
2019-04-20T10:36:55.763Z,247.50
2019-04-20T10:37:55.739Z,253.13
2019-04-20T10:38:55.624Z,258.75
2019-04-20T10:39:56.560Z,298.13
2019-04-20T10:41:04.403Z,241.88
2019-04-20T10:41:59.015Z,264.38
2019-04-20T10:42:58.190Z,258.75
2019-04-20T10:43:56.612Z,286.88
2019-04-20T10:44:57.207Z,309.38
2019-04-20T10:45:55.132Z,331.88
2019-04-20T10:46:55.060Z,360.00
2019-04-20T10:47:55.086Z,315.00
2019-04-20T10:48:57.221Z,326.25
2019-04-20T10:49:55.347Z,270.00
2019-04-20T10:50:54.884Z,298.13
2019-04-20T10:51:55.783Z,1254.38
2019-04-20T10:52:55.994Z,731.25
2019-04-20T10:53:54.567Z,264.38
2019-04-20T10:54:54.504Z,956.25
2019-04-20T10:55:55.597Z,292.50
2019-04-20T10:56:55.412Z,894.38
2019-04-20T10:57:55.591Z,1220.63
2019-04-20T10:58:54.219Z,680.63
2019-04-20T10:59:55.382Z,1051.88
2019-04-20T11:00:55.356Z,421.88
2019-04-20T11:08:56.318Z,495.00
2019-04-20T11:10:04.381Z,1113.75
2019-04-20T11:11:07.364Z,1575.00
2019-04-20T11:11:56.365Z,1423.13
2019-04-20T11:12:55.058Z,1400.63
2019-04-20T11:13:55.355Z,1479.38
2019-04-20T11:14:54.924Z,776.25
2019-04-20T11:15:54.879Z,573.75
2019-04-20T11:16:56.126Z,438.75
2019-04-20T11:17:57.563Z,573.75
2019-04-20T11:19:47.564Z,360.00
2019-04-20T11:20:47.072Z,371.25
2019-04-20T11:21:48.208Z,855.00
2019-04-20T11:22:46.936Z,1181.25
2019-04-20T11:23:46.867Z,1046.25
2019-04-20T11:24:48.158Z,596.25
2019-04-20T11:25:46.731Z,1316.25
2019-04-20T11:26:46.904Z,613.13
2019-04-20T11:27:47.987Z,652.50
2019-04-20T11:28:46.522Z,613.13
2019-04-20T11:29:46.453Z,663.75
2019-04-20T11:30:46.385Z,1023.75
2019-04-20T11:31:49.505Z,1282.50
2019-04-20T11:32:46.359Z,1260.00
2019-04-20T11:33:46.180Z,1569.38
2019-04-20T11:34:47.110Z,2902.50
2019-04-20T11:35:46.899Z,2424.38
2019-04-20T11:36:45.976Z,3982.50
2019-04-20T11:37:47.048Z,3628.13
2019-04-20T11:38:47.045Z,4522.50
2019-04-20T11:39:45.776Z,4466.25
2019-04-20T11:40:46.890Z,4398.75
2019-04-20T11:41:45.812Z,4528.13
2019-04-20T11:42:45.708Z,4471.88
2019-04-20T11:43:45.512Z,4365.00
2019-04-20T11:44:46.732Z,4432.50
2019-04-20T11:45:46.725Z,4376.25
2019-04-20T11:46:45.318Z,4432.50
2019-04-20T11:47:45.357Z,4320.00
2019-04-20T11:48:45.489Z,3926.25
2019-04-20T11:49:45.814Z,3988.13
2019-04-20T11:50:45.391Z,4196.25
2019-04-20T11:51:45.551Z,4235.63
2019-04-20T11:52:48.136Z,4348.13
2019-04-20T11:53:45.989Z,4539.38
2019-04-20T11:54:44.818Z,4612.50
2019-04-20T11:55:44.757Z,4438.13
2019-04-20T11:56:47.164Z,4533.75
2019-04-20T11:57:45.236Z,4471.88
2019-04-20T11:58:44.904Z,4320.00
2019-04-20T11:59:45.339Z,4308.75
2019-04-20T12:00:55.261Z,4421.25
2019-04-20T12:01:51.976Z,4477.50
2019-04-20T12:02:46.486Z,4612.50
2019-04-20T12:03:54.268Z,4657.50
2019-04-20T12:04:54.362Z,4899.38
2019-04-20T12:05:48.221Z,4781.25
2019-04-20T12:06:44.100Z,4455.00
2019-04-20T12:07:44.806Z,4443.75
2019-04-20T12:08:45.364Z,4590.00
2019-04-20T12:09:43.931Z,4657.50
2019-04-20T12:10:49.250Z,4663.13
2019-04-20T12:11:54.957Z,4685.63
2019-04-20T12:12:47.865Z,4533.75
2019-04-20T12:13:44.870Z,4500.00
2019-04-20T12:14:43.641Z,4696.88
2019-04-20T12:15:43.575Z,4786.88
2019-04-20T12:16:43.780Z,4584.38
2019-04-20T12:17:43.932Z,4488.75
2019-04-20T12:18:44.358Z,4561.88
2019-04-20T12:19:43.881Z,4640.63
2019-04-20T12:20:43.289Z,4747.50
2019-04-20T12:21:43.231Z,4758.75
2019-04-20T12:22:44.261Z,4606.88
2019-04-20T12:23:44.435Z,4376.25
2019-04-20T12:24:44.450Z,4455.00
2019-04-20T12:25:44.580Z,4725.00
2019-04-20T12:26:42.946Z,4651.88
2019-04-20T12:27:50.745Z,4550.63
2019-04-20T12:28:43.380Z,4944.38
2019-04-20T12:29:43.628Z,4871.25
2019-04-20T12:30:43.869Z,4775.63
2019-04-20T12:31:44.292Z,4550.63
2019-04-20T12:32:47.791Z,4533.75
2019-04-20T12:33:42.550Z,4623.75
2019-04-20T12:34:43.422Z,4612.50
2019-04-20T12:35:42.642Z,4680.00
2019-04-20T12:36:42.830Z,4798.13
2019-04-20T12:37:43.150Z,4713.75
2019-04-20T12:38:43.346Z,4522.50
2019-04-20T12:39:42.897Z,4539.38
2019-04-20T12:40:42.156Z,4539.38
2019-04-20T12:41:49.796Z,4691.25
2019-04-20T12:42:43.181Z,4606.88
2019-04-20T12:43:41.987Z,4640.63
2019-04-20T12:44:41.930Z,4786.88
2019-04-20T12:45:42.128Z,4713.75
2019-04-20T12:46:41.819Z,4584.38
2019-04-20T12:47:41.775Z,4528.13
2019-04-20T12:48:41.870Z,4539.38
2019-04-20T12:49:41.649Z,4443.75
2019-04-20T12:50:41.605Z,4426.88
2019-04-20T12:51:48.711Z,4545.00
2019-04-20T12:52:41.481Z,4471.88
2019-04-20T12:53:42.597Z,4275.00
2019-04-20T12:54:44.246Z,4044.38
2019-04-20T12:55:41.310Z,4078.13
2019-04-20T12:56:42.509Z,3960.00
2019-04-20T12:57:41.198Z,3948.75
2019-04-20T12:58:43.375Z,3420.00
2019-04-20T12:59:43.669Z,3065.63
2019-04-20T13:00:41.664Z,3206.25
2019-04-20T13:01:41.523Z,3712.50
2019-04-20T13:02:41.159Z,4061.25
2019-04-20T13:03:41.560Z,4072.50
2019-04-20T13:04:41.561Z,4140.00
2019-04-20T13:05:40.753Z,4415.63
2019-04-20T13:06:40.934Z,4488.75
2019-04-20T13:07:46.057Z,4494.38
2019-04-20T13:08:44.426Z,4578.75
2019-04-20T13:09:40.875Z,4533.75
2019-04-20T13:10:40.466Z,4455.00
2019-04-20T13:11:50.733Z,4173.75
2019-04-20T13:12:40.757Z,4230.00
2019-04-20T13:13:40.805Z,4336.88
2019-04-20T13:14:40.240Z,4083.75
2019-04-20T13:15:40.565Z,4117.50
2019-04-20T13:16:40.598Z,4286.25
2019-04-20T13:17:40.118Z,4162.50
2019-04-20T13:18:41.148Z,4117.50
2019-04-20T13:19:39.961Z,4275.00
2019-04-20T13:20:39.939Z,4168.13
2019-04-20T13:21:40.985Z,4213.13